Time;durP1;ratioP1;P1;durP2;ratioP2;P2;SDS_P1;SDS_P2;PMS_P1;PMS_P2;Temp;Humidity;BMP_temperature;BMP_pressure;BME280_temperature;BME280_humidity;BME280_pressure;Samples;Min_cycle;Max_cycle;Signal;HPM_P1;HPM_P2
2023/07/20 00:00:25;;;;;;;2.42;1.20;;;;;;;17.87;100.00;101296.16;5003270;28;20034;-78
2023/07/20 00:02:51;;;;;;;1.42;1.10;;;;;;;17.81;100.00;101292.94;4998383;28;20062;-78
2023/07/20 00:05:24;;;;;;;1.02;0.93;;;;;;;17.79;100.00;101300.25;5004262;28;20118;-78
2023/07/20 00:07:51;;;;;;;1.10;0.80;;;;;;;17.67;100.00;101302.38;5007341;28;20026;-78
2023/07/20 00:10:17;;;;;;;3.85;1.20;;;;;;;17.72;100.00;101297.50;5004206;28;20104;-78
2023/07/20 00:12:47;;;;;;;1.30;1.10;;;;;;;17.64;100.00;101303.19;5006183;28;20113;-78
2023/07/20 00:15:13;;;;;;;2.22;1.35;;;;;;;17.62;100.00;101302.81;4984437;28;20425;-78
2023/07/20 00:17:39;;;;;;;3.60;1.25;;;;;;;17.58;100.00;101302.06;4991242;28;20033;-78
2023/07/20 00:20:06;;;;;;;1.13;1.02;;;;;;;17.67;100.00;101295.91;5005827;28;20029;-78
2023/07/20 00:22:31;;;;;;;1.55;1.33;;;;;;;17.65;100.00;101293.50;4991682;28;20236;-78
2023/07/20 00:24:57;;;;;;;1.85;1.15;;;;;;;17.61;100.00;101297.59;4999581;28;20105;-78
2023/07/20 00:27:22;;;;;;;1.50;1.25;;;;;;;17.42;100.00;101301.78;4991998;28;20045;-78
2023/07/20 00:29:47;;;;;;;2.60;1.15;;;;;;;17.60;100.00;101296.78;4991839;28;20677;-78
2023/07/20 00:32:13;;;;;;;1.05;0.95;;;;;;;17.63;100.00;101290.28;4989460;28;20160;-78
2023/07/20 00:34:38;;;;;;;1.90;0.90;;;;;;;17.67;100.00;101296.72;4994211;28;20045;-78
2023/07/20 00:37:04;;;;;;;2.75;1.25;;;;;;;17.77;100.00;101297.03;4972319;28;20099;-78
2023/07/20 00:39:30;;;;;;;2.25;1.38;;;;;;;17.47;100.00;101295.66;4994201;28;20057;-78
2023/07/20 00:41:55;;;;;;;2.08;1.60;;;;;;;17.68;100.00;101298.31;4991566;28;20034;-78
2023/07/20 00:44:21;;;;;;;1.60;1.20;;;;;;;17.75;100.00;101302.31;4991804;28;20515;-78
2023/07/20 00:46:47;;;;;;;1.67;1.50;;;;;;;17.68;100.00;101303.19;4988427;28;20628;-78
2023/07/20 00:49:14;;;;;;;1.98;1.52;;;;;;;17.61;100.00;101295.56;4988779;28;20851;-78
2023/07/20 00:51:39;;;;;;;1.42;1.30;;;;;;;17.62;100.00;101299.97;4995450;28;20056;-78
2023/07/20 00:54:05;;;;;;;2.63;1.55;;;;;;;17.52;100.00;101298.06;4989230;28;20114;-78
2023/07/20 00:56:30;;;;;;;3.00;2.00;;;;;;;17.56;100.00;101301.66;4990455;28;20038;-78
2023/07/20 00:58:56;;;;;;;1.90;1.30;;;;;;;17.54;100.00;101297.63;4990149;28;20268;-78
2023/07/20 01:01:22;;;;;;;2.53;1.60;;;;;;;17.47;100.00;101299.28;4995032;28;20042;-78
2023/07/20 01:03:48;;;;;;;1.77;1.52;;;;;;;17.54;100.00;101292.78;5004368;28;20116;-78
2023/07/20 01:06:39;;;;;;;2.55;1.58;;;;;;;17.49;100.00;101284.72;4991274;28;20053;-78
2023/07/20 01:09:26;;;;;;;3.05;1.60;;;;;;;17.46;100.00;101302.56;4989268;28;20351;-78
2023/07/20 01:12:03;;;;;;;2.45;1.58;;;;;;;17.49;100.00;101290.38;4994742;28;20355;-78
2023/07/20 01:14:29;;;;;;;2.63;2.05;;;;;;;17.40;100.00;101293.69;4993070;28;20041;-78
2023/07/20 01:16:55;;;;;;;2.72;1.83;;;;;;;17.47;100.00;101295.66;4990807;28;20041;-78
2023/07/20 01:19:20;;;;;;;3.40;1.70;;;;;;;17.43;100.00;101292.88;4988390;28;20084;-78
2023/07/20 01:22:07;;;;;;;2.17;1.70;;;;;;;17.32;100.00;101308.31;4990079;28;20138;-78
2023/07/20 01:24:46;;;;;;;2.08;1.60;;;;;;;17.39;100.00;101296.91;4996149;28;20046;-78
2023/07/20 01:27:30;;;;;;;3.88;2.40;;;;;;;17.40;100.00;101298.56;4991667;28;20029;-78
2023/07/20 01:30:14;;;;;;;2.08;1.45;;;;;;;17.35;100.00;101310.28;4997367;28;21416;-78
2023/07/20 01:32:42;;;;;;;2.45;1.92;;;;;;;17.35;100.00;101301.81;4992810;28;21076;-78
2023/07/20 01:35:14;;;;;;;1.95;1.50;;;;;;;17.30;100.00;101305.09;4995841;28;20526;-78
2023/07/20 01:37:41;;;;;;;4.47;2.03;;;;;;;17.17;100.00;101308.38;4999753;28;20033;-78
2023/07/20 01:40:07;;;;;;;3.00;1.92;;;;;;;17.28;100.00;101302.66;4996228;28;20042;-78
2023/07/20 01:42:33;;;;;;;2.30;1.50;;;;;;;17.35;100.00;101304.63;4983148;28;20407;-77
2023/07/20 01:44:58;;;;;;;4.40;1.95;;;;;;;17.27;100.00;101301.88;4991685;28;20113;-78
2023/07/20 01:47:24;;;;;;;2.38;1.65;;;;;;;17.19;100.00;101297.47;4986692;28;20063;-78
2023/07/20 01:49:49;;;;;;;3.60;2.03;;;;;;;17.19;100.00;101305.16;4993386;28;20507;-78
2023/07/20 01:52:15;;;;;;;1.92;1.70;;;;;;;17.21;100.00;101302.72;4996945;28;20033;-78
2023/07/20 01:54:40;;;;;;;3.05;1.40;;;;;;;17.19;100.00;101299.50;4994820;28;20033;-78
2023/07/20 01:57:06;;;;;;;1.80;1.33;;;;;;;17.09;100.00;101295.50;4989205;28;20042;-78
2023/07/20 01:59:31;;;;;;;2.05;1.52;;;;;;;17.08;100.00;101302.38;4991589;28;20109;-78
2023/07/20 02:01:56;;;;;;;3.22;1.73;;;;;;;16.96;100.00;101302.84;4981843;28;20096;-78
2023/07/20 02:04:22;;;;;;;3.83;1.52;;;;;;;17.06;100.00;101307.66;4993810;28;20029;-78
2023/07/20 02:06:47;;;;;;;2.38;1.63;;;;;;;16.96;100.00;101300.81;4997728;28;20107;-78
2023/07/20 02:09:13;;;;;;;1.80;1.65;;;;;;;16.93;100.00;101295.19;4992862;28;20037;-78
2023/07/20 02:11:38;;;;;;;2.60;1.90;;;;;;;17.04;100.00;101302.41;4998944;28;20022;-78
2023/07/20 02:14:03;;;;;;;2.72;2.17;;;;;;;16.92;100.00;101302.06;4987409;28;20026;-78
2023/07/20 02:16:29;;;;;;;2.45;2.03;;;;;;;16.85;100.00;101295.22;4996998;28;20460;-78
2023/07/20 02:18:56;;;;;;;4.30;2.00;;;;;;;16.89;100.00;101297.22;5008723;28;20029;-78
2023/07/20 02:21:22;;;;;;;3.92;2.58;;;;;;;16.83;100.00;101300.50;4997286;28;20026;-78
2023/07/20 02:23:48;;;;;;;3.60;2.42;;;;;;;16.73;100.00;101301.31;4996707;28;20316;-78
2023/07/20 02:26:14;;;;;;;3.15;2.58;;;;;;;16.72;100.00;101305.38;4989768;28;20033;-78
2023/07/20 02:28:39;;;;;;;2.33;2.03;;;;;;;16.80;100.00;101301.31;5000240;28;20034;-78
2023/07/20 02:31:04;;;;;;;2.47;2.05;;;;;;;16.75;100.00;101304.53;4997777;28;20030;-77
2023/07/20 02:33:30;;;;;;;4.40;2.10;;;;;;;16.66;100.00;101312.66;4996697;28;20443;-77
2023/07/20 02:35:55;;;;;;;2.42;2.17;;;;;;;16.72;100.00;101315.84;4991624;28;20147;-77
2023/07/20 02:38:20;;;;;;;2.83;2.60;;;;;;;16.75;100.00;101310.19;4989243;28;20038;-77
2023/07/20 02:40:46;;;;;;;5.32;2.83;;;;;;;16.73;100.00;101312.63;5009880;28;20037;-78
2023/07/20 02:43:11;;;;;;;6.07;3.20;;;;;;;16.69;100.00;101320.28;4992193;28;20038;-78
2023/07/20 02:45:41;;;;;;;3.63;2.90;;;;;;;16.60;100.00;101319.94;5012642;28;20056;-78
2023/07/20 02:48:08;;;;;;;3.90;2.67;;;;;;;16.56;100.00;101321.97;4991441;28;20032;-78
2023/07/20 02:50:34;;;;;;;4.10;2.78;;;;;;;16.53;100.00;101314.28;4984884;28;20029;-78
2023/07/20 02:53:00;;;;;;;3.22;2.80;;;;;;;16.51;100.00;101316.72;5009758;28;20509;-78
2023/07/20 02:55:25;;;;;;;2.33;1.80;;;;;;;16.61;100.00;101318.72;4995129;28;20061;-78
2023/07/20 02:57:51;;;;;;;3.70;2.42;;;;;;;16.51;100.00;101322.38;4992614;28;20026;-78
2023/07/20 03:00:16;;;;;;;4.80;2.88;;;;;;;16.55;100.00;101323.16;4997274;28;20029;-78
2023/07/20 03:02:42;;;;;;;3.35;2.28;;;;;;;16.33;100.00;101326.06;4989743;28;20504;-78
2023/07/20 03:05:08;;;;;;;2.65;2.28;;;;;;;16.42;100.00;101326.47;4989142;28;20104;-78
2023/07/20 03:07:33;;;;;;;4.22;3.17;;;;;;;16.45;100.00;101325.63;4992614;28;20398;-77
2023/07/20 03:09:59;;;;;;;4.93;2.70;;;;;;;16.26;100.00;101331.72;4998060;28;20027;-77
2023/07/20 03:12:24;;;;;;;3.75;2.35;;;;;;;16.37;100.00;101328.88;5000296;28;20036;-76
2023/07/20 03:14:50;;;;;;;3.83;2.70;;;;;;;16.29;100.00;101319.59;5003310;28;20116;-77
2023/07/20 03:17:15;;;;;;;3.90;2.50;;;;;;;16.25;100.00;101333.75;5000590;28;20140;-78
2023/07/20 03:19:41;;;;;;;5.82;2.85;;;;;;;16.38;100.00;101331.31;5003801;28;20361;-78
2023/07/20 03:22:07;;;;;;;6.28;2.47;;;;;;;16.32;100.00;101338.59;5002671;28;20432;-78
2023/07/20 03:24:32;;;;;;;3.42;2.28;;;;;;;16.35;100.00;101340.59;4997960;28;20038;-77
2023/07/20 03:26:58;;;;;;;2.72;2.42;;;;;;;16.25;100.00;101338.59;4997000;28;20030;-78
2023/07/20 03:29:23;;;;;;;5.20;2.42;;;;;;;16.18;100.00;101338.59;4999719;28;20307;-77
2023/07/20 03:31:50;;;;;;;4.45;2.40;;;;;;;16.12;100.00;101343.03;4995525;28;20065;-78
2023/07/20 03:34:15;;;;;;;3.05;2.45;;;;;;;16.19;100.00;101334.56;4992898;28;20057;-78
2023/07/20 03:36:41;;;;;;;4.13;2.78;;;;;;;16.21;100.00;101337.78;5000644;28;20100;-77
2023/07/20 03:39:06;;;;;;;2.85;2.60;;;;;;;16.23;100.00;101341.84;5000827;28;20586;-78
2023/07/20 03:41:32;;;;;;;5.38;3.22;;;;;;;16.16;100.00;101341.03;4996567;28;20048;-78
2023/07/20 03:43:57;;;;;;;3.58;2.50;;;;;;;16.13;100.00;101348.28;5004065;28;20040;-78
2023/07/20 03:46:22;;;;;;;3.47;2.20;;;;;;;16.14;100.00;101354.75;4999832;28;20938;-77
2023/07/20 03:48:51;;;;;;;4.75;3.47;;;;;;;16.01;100.00;101346.69;4998890;28;20645;-77
2023/07/20 03:51:16;;;;;;;3.90;2.78;;;;;;;15.95;100.00;101337.00;5007436;28;20038;-77
2023/07/20 03:53:42;;;;;;;3.92;2.80;;;;;;;16.00;100.00;101347.06;4997743;28;20059;-77
2023/07/20 03:56:07;;;;;;;3.72;2.95;;;;;;;15.89;100.00;101338.63;4997795;28;20079;-78
2023/07/20 03:58:33;;;;;;;3.75;2.75;;;;;;;15.99;100.00;101349.09;4998346;28;20037;-77
2023/07/20 04:00:58;;;;;;;6.38;3.40;;;;;;;15.95;100.00;101339.03;5002747;28;20040;-78
2023/07/20 04:03:24;;;;;;;3.95;2.90;;;;;;;15.89;100.00;101344.25;4994051;28;20500;-77
2023/07/20 04:05:50;;;;;;;3.05;2.75;;;;;;;15.96;100.00;101341.44;4998614;28;20512;-78
2023/07/20 04:08:15;;;;;;;3.00;2.70;;;;;;;15.92;100.00;101343.47;5001285;28;20121;-78
2023/07/20 04:10:44;;;;;;;3.35;2.88;;;;;;;16.00;100.00;101339.44;5002530;28;20120;-78
2023/07/20 04:13:09;;;;;;;4.05;2.95;;;;;;;15.80;100.00;101335.41;5001437;28;20041;-78
2023/07/20 04:15:35;;;;;;;2.92;2.42;;;;;;;15.96;100.00;101352.75;5008501;28;20410;-77
2023/07/20 04:18:00;;;;;;;5.32;3.33;;;;;;;15.94;100.00;101343.03;4996173;28;20033;-77
2023/07/20 04:20:26;;;;;;;3.67;2.80;;;;;;;15.81;100.00;101349.13;5004807;28;20133;-77
2023/07/20 04:22:51;;;;;;;3.60;2.80;;;;;;;15.86;100.00;101345.06;5002037;28;20030;-77
2023/07/20 04:25:20;;;;;;;5.43;3.28;;;;;;;15.85;100.00;101349.09;4995426;28;20053;-78
2023/07/20 04:27:45;;;;;;;3.38;2.88;;;;;;;15.83;100.00;101351.50;4991035;28;20026;-77
2023/07/20 04:30:12;;;;;;;3.85;3.42;;;;;;;15.88;100.00;101348.31;4992247;28;20064;-77
2023/07/20 04:32:45;;;;;;;4.60;3.30;;;;;;;15.99;100.00;101346.28;4991234;28;20056;-77
2023/07/20 04:35:11;;;;;;;3.55;2.55;;;;;;;16.00;100.00;101353.56;5000427;28;20044;-77
2023/07/20 04:37:36;;;;;;;4.30;3.03;;;;;;;16.00;100.00;101361.19;4994561;28;20113;-77
2023/07/20 04:40:03;;;;;;;3.83;3.22;;;;;;;15.94;100.00;101363.63;4984858;28;20034;-78
2023/07/20 04:42:28;;;;;;;2.90;2.70;;;;;;;15.93;100.00;101362.00;4999204;28;20125;-77
2023/07/20 04:44:54;;;;;;;3.33;2.42;;;;;;;16.00;100.00;101359.19;4988409;28;20441;-77
2023/07/20 04:47:19;;;;;;;3.67;2.42;;;;;;;16.04;100.00;101374.13;4992599;28;20029;-77
2023/07/20 04:49:44;;;;;;;3.83;2.63;;;;;;;15.83;100.00;101372.09;4998523;28;20038;-77
2023/07/20 04:52:10;;;;;;;2.65;2.28;;;;;;;15.90;100.00;101373.31;5001494;28;20101;-77
2023/07/20 04:54:35;;;;;;;3.53;2.50;;;;;;;15.92;100.00;101377.34;4989084;28;20117;-78
2023/07/20 04:57:01;;;;;;;3.22;2.60;;;;;;;16.04;100.00;101385.41;4997949;28;20066;-77
2023/07/20 04:59:26;;;;;;;3.33;2.47;;;;;;;15.96;100.00;101374.50;4992759;28;20033;-77
2023/07/20 05:01:52;;;;;;;3.70;2.60;;;;;;;15.96;100.00;101383.81;4997494;28;20037;-77
2023/07/20 05:04:17;;;;;;;3.00;2.67;;;;;;;15.94;100.00;101372.09;4994623;28;20079;-78
2023/07/20 05:06:43;;;;;;;4.38;3.33;;;;;;;16.05;100.00;101384.19;5003408;28;20475;-78
2023/07/20 05:09:09;;;;;;;3.65;2.92;;;;;;;16.14;100.00;101382.97;4994055;28;20897;-77
2023/07/20 05:11:34;;;;;;;3.20;2.80;;;;;;;16.16;100.00;101383.38;4996773;28;20048;-78
2023/07/20 05:14:00;;;;;;;6.03;3.03;;;;;;;16.18;100.00;101386.63;4993934;28;20504;-78
2023/07/20 05:16:25;;;;;;;4.97;2.80;;;;;;;16.16;100.00;101386.22;4999145;28;20041;-78
2023/07/20 05:18:51;;;;;;;3.90;2.92;;;;;;;16.16;100.00;101374.91;4991543;28;20037;-78
2023/07/20 05:21:16;;;;;;;3.08;2.60;;;;;;;16.16;100.00;101383.38;4991827;28;20117;-78
2023/07/20 05:23:42;;;;;;;5.63;3.78;;;;;;;16.09;100.00;101381.38;4997677;28;20070;-78
2023/07/20 05:26:09;;;;;;;4.13;2.90;;;;;;;16.15;100.00;101385.41;4991382;28;20563;-78
2023/07/20 05:28:34;;;;;;;5.07;3.25;;;;;;;16.17;100.00;101388.63;4994454;28;20523;-78
2023/07/20 05:31:02;;;;;;;4.85;3.15;;;;;;;16.15;100.00;101390.22;5008531;28;20029;-78
2023/07/20 05:33:28;;;;;;;5.90;3.55;;;;;;;16.19;100.00;101379.75;4994891;28;20110;-78
2023/07/20 05:35:53;;;;;;;3.28;2.40;;;;;;;16.17;100.00;101385.81;4988986;28;20436;-78
2023/07/20 05:38:19;;;;;;;3.30;2.67;;;;;;;16.05;100.00;101387.03;4995546;28;20355;-78
2023/07/20 05:40:45;;;;;;;9.00;3.47;;;;;;;16.22;100.00;101388.22;5003377;28;20045;-78
2023/07/20 05:43:11;;;;;;;3.22;2.70;;;;;;;16.27;100.00;101392.66;4997192;28;20080;-78
2023/07/20 05:45:37;;;;;;;4.30;2.30;;;;;;;16.22;100.00;101388.22;4999777;28;20466;-77
2023/07/20 05:48:02;;;;;;;2.70;2.15;;;;;;;16.32;100.00;101386.59;5004954;28;20037;-78
2023/07/20 05:50:28;;;;;;;2.85;2.20;;;;;;;16.33;100.00;101388.22;5006884;28;20034;-78
2023/07/20 05:52:54;;;;;;;2.70;2.10;;;;;;;16.46;100.00;101392.25;5003072;28;20558;-78
2023/07/20 05:55:20;;;;;;;3.42;2.42;;;;;;;16.38;100.00;101386.97;5001161;28;20505;-78
2023/07/20 05:57:46;;;;;;;3.17;2.00;;;;;;;16.40;100.00;101393.88;4999778;28;20069;-77
2023/07/20 06:00:12;;;;;;;3.22;1.98;;;;;;;16.45;100.00;101384.97;4997960;28;20034;-77
2023/07/20 06:02:39;;;;;;;2.08;1.83;;;;;;;16.31;100.00;101387.81;4997953;28;20510;-77
2023/07/20 06:05:05;;;;;;;1.95;1.67;;;;;;;16.37;100.00;101393.84;5002314;28;20050;-77
2023/07/20 06:07:31;;;;;;;2.20;1.80;;;;;;;16.41;100.00;101391.84;4986917;28;20870;-77
2023/07/20 06:09:58;;;;;;;1.58;1.42;;;;;;;16.43;100.00;101390.22;4998863;28;20040;-77
2023/07/20 06:12:23;;;;;;;3.63;1.60;;;;;;;16.42;100.00;101397.09;5000060;28;20382;-78
2023/07/20 06:14:48;;;;;;;5.20;1.88;;;;;;;16.55;100.00;101408.78;4995046;28;20033;-78
2023/07/20 06:17:14;;;;;;;1.88;1.70;;;;;;;16.62;100.00;101397.44;4987429;28;20033;-78
2023/07/20 06:19:39;;;;;;;4.28;1.98;;;;;;;16.60;100.00;101405.53;4992168;28;20128;-78
2023/07/20 06:22:05;;;;;;;2.38;1.45;;;;;;;16.64;100.00;101411.19;5001991;28;20030;-78
2023/07/20 06:24:30;;;;;;;2.38;1.48;;;;;;;16.66;100.00;101414.41;4998712;28;20120;-78
2023/07/20 06:26:55;;;;;;;4.07;1.23;;;;;;;16.66;100.00;101412.38;5000225;28;20070;-78
2023/07/20 06:29:21;;;;;;;1.38;1.27;;;;;;;16.65;100.00;101410.78;5003189;28;20087;-78
2023/07/20 06:31:48;;;;;;;2.28;1.90;;;;;;;16.60;100.00;101416.03;4995161;28;20103;-88
2023/07/20 06:34:14;;;;;;;4.13;1.50;;;;;;;16.72;100.00;101418.44;5007660;28;20022;-78
2023/07/20 06:36:39;;;;;;;1.90;1.65;;;;;;;16.73;100.00;101416.41;5004979;28;20033;-78
2023/07/20 06:39:04;;;;;;;2.53;1.58;;;;;;;16.67;100.00;101419.66;4994618;28;20410;-78
2023/07/20 06:41:30;;;;;;;1.27;1.17;;;;;;;17.02;100.00;101414.34;4996457;28;20022;-78
2023/07/20 06:43:58;;;;;;;1.42;0.98;;;;;;;18.78;97.34;101413.91;5005504;28;20038;-78
2023/07/20 06:46:26;;;;;;;2.15;1.10;;;;;;;19.50;92.62;101424.34;5006273;28;20084;-78
2023/07/20 06:48:52;;;;;;;7.72;1.48;;;;;;;19.88;89.96;101432.75;5002615;28;21080;-79
2023/07/20 06:51:17;;;;;;;3.38;1.45;;;;;;;19.93;89.16;101429.47;5009783;28;20084;-77
2023/07/20 06:53:43;;;;;;;3.08;1.10;;;;;;;20.07;87.89;101432.06;4997825;28;20052;-76
2023/07/20 06:56:09;;;;;;;2.78;1.00;;;;;;;20.04;86.98;101429.28;5001885;28;20026;-77
2023/07/20 06:58:34;;;;;;;1.00;0.75;;;;;;;20.17;86.08;101423.78;5003463;28;20040;-76
2023/07/20 07:01:05;;;;;;;1.42;1.33;;;;;;;20.26;86.05;101429.72;4997859;28;20474;-77
2023/07/20 07:03:30;;;;;;;3.35;1.10;;;;;;;20.18;86.18;101433.94;5011177;28;20305;-77
2023/07/20 07:05:56;;;;;;;1.52;1.10;;;;;;;20.14;87.09;101436.03;5006658;28;20571;-77
2023/07/20 07:08:21;;;;;;;2.17;1.00;;;;;;;20.33;85.47;101429.63;5010433;28;20397;-77
2023/07/20 07:10:47;;;;;;;1.60;1.20;;;;;;;20.43;84.49;101430.69;5003070;28;20042;-77
2023/07/20 07:13:12;;;;;;;3.75;0.98;;;;;;;20.34;83.79;101439.75;5007470;28;20022;-77
2023/07/20 07:15:37;;;;;;;1.35;0.85;;;;;;;20.47;83.59;101446.44;5006080;28;20084;-76
2023/07/20 07:18:03;;;;;;;1.13;0.90;;;;;;;20.60;82.40;101434.47;5012716;28;20124;-77
2023/07/20 07:20:28;;;;;;;2.90;1.40;;;;;;;20.64;82.25;101436.00;4999785;28;20030;-77
2023/07/20 07:22:55;;;;;;;1.60;1.45;;;;;;;20.73;81.56;101437.47;5003001;28;20038;-77
2023/07/20 07:25:21;;;;;;;1.45;0.80;;;;;;;20.65;81.87;101437.59;5004699;28;20036;-78
2023/07/20 07:27:46;;;;;;;2.75;0.70;;;;;;;20.59;82.22;101438.53;5004984;28;20022;-78
2023/07/20 07:30:12;;;;;;;1.33;1.23;;;;;;;20.59;81.59;101439.34;5009539;28;20026;-77
2023/07/20 07:32:37;;;;;;;1.63;1.00;;;;;;;20.69;81.29;101440.38;5014036;28;20087;-77
2023/07/20 07:35:04;;;;;;;4.30;1.10;;;;;;;20.71;81.68;101449.28;4997652;28;20454;-78
2023/07/20 07:37:29;;;;;;;3.15;0.80;;;;;;;20.70;81.03;101445.66;5004801;28;20137;-77
2023/07/20 07:39:55;;;;;;;2.85;1.60;;;;;;;20.75;80.43;101432.94;5005363;28;20533;-77
2023/07/20 07:42:20;;;;;;;1.75;1.00;;;;;;;20.76;80.01;101437.41;5022648;28;20149;-77
2023/07/20 07:44:46;;;;;;;1.58;0.90;;;;;;;20.85;79.26;101439.66;5008693;28;20057;-77
2023/07/20 07:47:12;;;;;;;1.20;0.90;;;;;;;20.88;78.71;101442.44;5016123;28;20092;-77
2023/07/20 07:49:37;;;;;;;1.73;0.85;;;;;;;20.86;78.72;101444.94;5001663;28;20099;-77
2023/07/20 07:52:03;;;;;;;1.70;1.00;;;;;;;20.98;77.98;101445.53;5002396;28;20466;-77
2023/07/20 07:54:29;;;;;;;0.80;0.80;;;;;;;21.01;77.03;101450.34;5007563;28;20417;-77
2023/07/20 07:56:54;;;;;;;1.20;0.88;;;;;;;21.04;76.70;101455.97;5010441;28;20038;-77
2023/07/20 07:59:20;;;;;;;0.55;0.55;;;;;;;20.95;76.62;101435.00;5003239;28;20063;-77
2023/07/20 08:01:45;;;;;;;2.30;0.98;;;;;;;20.41;79.16;101448.16;5005323;28;20030;-77
2023/07/20 08:04:10;;;;;;;1.08;0.80;;;;;;;20.63;76.52;101444.97;4995828;28;20390;-78
2023/07/20 08:06:36;;;;;;;1.05;0.80;;;;;;;20.84;75.47;101443.75;4981430;28;20354;-77
2023/07/20 08:09:01;;;;;;;4.13;0.80;;;;;;;19.95;76.76;101432.66;5005551;28;20046;-77
2023/07/20 08:11:27;;;;;;;1.92;1.00;;;;;;;19.67;81.27;101429.00;5004935;28;20525;-77
2023/07/20 08:13:52;;;;;;;2.65;1.00;;;;;;;19.60;80.22;101439.66;5002853;28;20030;-77
2023/07/20 08:16:17;;;;;;;3.30;0.77;;;;;;;19.74;80.06;101433.81;4994121;28;20419;-77
2023/07/20 08:18:45;;;;;;;1.30;0.85;;;;;;;20.26;76.83;101452.47;5003826;28;20026;-77
2023/07/20 08:21:10;;;;;;;3.08;0.98;;;;;;;20.38;75.62;101454.69;4999326;28;20045;-77
2023/07/20 08:23:36;;;;;;;0.85;0.82;;;;;;;20.59;75.87;101447.06;5014322;28;20041;-78
2023/07/20 08:26:01;;;;;;;3.70;1.00;;;;;;;20.76;74.81;101443.09;5003458;28;20033;-77
2023/07/20 08:28:29;;;;;;;1.40;0.77;;;;;;;20.76;75.21;101453.66;5004939;28;20091;-77
2023/07/20 08:30:54;;;;;;;2.25;0.65;;;;;;;20.71;75.04;101443.59;5003876;28;20100;-77
2023/07/20 08:33:20;;;;;;;1.00;0.90;;;;;;;20.89;74.43;101446.91;5005616;28;20168;-76
2023/07/20 08:35:46;;;;;;;1.48;0.85;;;;;;;20.70;74.18;101457.03;5002067;28;20196;-78
2023/07/20 08:38:12;;;;;;;3.55;0.88;;;;;;;20.72;74.25;101450.88;5007405;28;20033;-77
2023/07/20 08:40:42;;;;;;;1.45;1.25;;;;;;;20.70;74.48;101447.66;5008176;28;20029;-77
2023/07/20 08:43:08;;;;;;;1.55;1.35;;;;;;;20.55;75.25;101440.59;5005830;28;20135;-77
2023/07/20 08:45:34;;;;;;;2.85;1.20;;;;;;;20.68;74.66;101447.28;5003002;28;20482;-77
2023/07/20 08:48:00;;;;;;;2.75;0.80;;;;;;;20.69;74.68;101443.22;5006282;28;20034;-78
2023/07/20 08:50:30;;;;;;;0.90;0.80;;;;;;;20.76;74.18;101451.63;5010815;28;20500;-77
2023/07/20 08:52:57;;;;;;;2.15;1.52;;;;;;;19.81;79.68;101449.94;5001908;28;20030;-77
2023/07/20 08:55:23;;;;;;;1.15;0.90;;;;;;;19.18;82.44;101459.66;5008812;28;21624;-77
2023/07/20 08:57:52;;;;;;;1.10;0.90;;;;;;;19.06;83.24;101457.38;5008297;28;20462;-78
2023/07/20 09:00:19;;;;;;;1.95;1.20;;;;;;;18.82;85.19;101460.03;5002241;28;20037;-79
2023/07/20 09:02:45;;;;;;;2.58;1.00;;;;;;;18.76;83.59;101463.72;5010130;28;20120;-77
2023/07/20 09:05:12;;;;;;;2.33;1.02;;;;;;;18.33;85.48;101459.28;5002592;28;20049;-80
2023/07/20 09:07:39;;;;;;;3.13;1.05;;;;;;;18.52;86.31;101462.75;5014454;28;20032;-80
2023/07/20 09:10:06;;;;;;;3.38;1.20;;;;;;;18.52;88.06;101471.25;5003823;28;20033;-79
2023/07/20 09:12:35;;;;;;;2.08;1.88;;;;;;;18.12;92.00;101467.94;5012530;28;20057;-79
2023/07/20 09:15:00;;;;;;;3.13;1.50;;;;;;;18.17;93.33;101471.16;5003104;28;20029;-80
2023/07/20 09:17:26;;;;;;;4.43;1.30;;;;;;;17.99;95.44;101470.47;5007810;28;20034;-79
2023/07/20 09:19:52;;;;;;;2.25;1.55;;;;;;;17.88;98.63;101484.69;5005709;28;20084;-81
2023/07/20 09:22:17;;;;;;;3.58;1.70;;;;;;;17.73;100.00;101494.44;5004618;28;20121;-82
2023/07/20 09:24:43;;;;;;;1.75;1.13;;;;;;;17.57;100.00;101492.13;5007724;28;20038;-81
2023/07/20 09:27:10;;;;;;;1.60;1.40;;;;;;;17.65;100.00;101491.66;5000932;28;20490;-82
2023/07/20 09:29:50;;;;;;;4.57;2.00;;;;;;;17.76;100.00;101482.31;5003246;28;20033;-84
2023/07/20 09:32:20;;;;;;;2.00;1.70;;;;;;;17.79;100.00;101475.81;5010577;28;20022;-84
2023/07/20 09:34:46;;;;;;;4.10;2.17;;;;;;;17.78;100.00;101477.03;5006314;28;20036;-85
2023/07/20 09:37:12;;;;;;;2.42;1.50;;;;;;;17.72;100.00;101481.53;5006954;28;20038;-87
2023/07/20 09:39:45;;;;;;;2.08;1.30;;;;;;;17.65;100.00;101469.00;5006746;28;20110;-85
2023/07/20 09:42:15;;;;;;;1.88;1.42;;;;;;;17.66;100.00;101464.94;5006143;28;20353;-85
2023/07/20 09:44:43;;;;;;;2.63;2.35;;;;;;;17.74;100.00;101476.25;4998475;28;20026;-84
2023/07/20 09:47:08;;;;;;;1.90;1.58;;;;;;;17.81;100.00;101476.19;5003627;28;20402;-84
2023/07/20 09:49:42;;;;;;;1.48;1.30;;;;;;;17.85;100.00;101477.00;5004326;28;21016;-83
2023/07/20 09:52:11;;;;;;;2.25;2.05;;;;;;;17.97;100.00;101473.69;5020049;28;20029;-83
2023/07/20 09:54:40;;;;;;;3.38;1.70;;;;;;;18.03;100.00;101476.91;5005569;28;20390;-83
2023/07/20 09:57:10;;;;;;;2.65;2.38;;;;;;;18.17;100.00;101467.50;5008055;28;20041;-83
2023/07/20 09:59:35;;;;;;;1.73;1.50;;;;;;;18.41;100.00;101469.31;5005434;28;20041;-83
2023/07/20 10:02:03;;;;;;;1.50;1.40;;;;;;;18.58;100.00;101473.22;5002861;28;20030;-83
2023/07/20 10:04:30;;;;;;;2.55;1.60;;;;;;;18.78;100.00;101470.63;5009226;28;20081;-83
2023/07/20 10:06:58;;;;;;;2.03;1.42;;;;;;;18.88;100.00;101466.06;5008302;28;20100;-83
2023/07/20 10:09:25;;;;;;;2.35;1.60;;;;;;;18.81;98.51;101460.47;5002233;28;20153;-83
2023/07/20 10:11:51;;;;;;;2.10;1.35;;;;;;;18.95;100.00;101465.19;5006969;28;20524;-84
2023/07/20 10:14:20;;;;;;;2.13;1.50;;;;;;;18.97;100.00;101463.53;5004484;28;20026;-83
2023/07/20 10:16:58;;;;;;;2.70;1.60;;;;;;;18.68;100.00;101454.50;5000716;28;20026;-83
2023/07/20 10:19:33;;;;;;;1.30;1.10;;;;;;;18.70;100.00;101457.72;5006733;28;20029;-83
2023/07/20 10:22:15;;;;;;;1.33;1.23;;;;;;;18.94;95.12;101472.09;5011149;28;20041;-82
2023/07/20 10:24:45;;;;;;;2.60;1.63;;;;;;;19.02;93.10;101473.63;5006875;28;20036;-82
2023/07/20 10:27:11;;;;;;;1.67;1.13;;;;;;;18.74;93.63;101469.84;5009533;28;20022;-82
2023/07/20 10:29:36;;;;;;;1.30;1.20;;;;;;;18.83;95.42;101467.34;5002220;28;20037;-83
2023/07/20 10:32:02;;;;;;;1.42;1.30;;;;;;;18.87;95.00;101462.44;5003305;28;20034;-79
2023/07/20 10:34:28;;;;;;;1.58;1.15;;;;;;;18.55;92.14;101451.41;4983524;28;20030;-77
2023/07/20 10:36:54;;;;;;;1.30;1.20;;;;;;;18.46;92.24;101456.72;5005933;28;20025;-77
2023/07/20 10:39:24;;;;;;;4.55;1.10;;;;;;;19.74;90.18;101450.84;4992192;28;20021;-77
2023/07/20 10:41:50;;;;;;;1.58;1.48;;;;;;;19.23;94.44;101453.50;5003283;28;20022;-77
2023/07/20 10:44:20;;;;;;;1.85;1.30;;;;;;;18.81;94.49;101451.97;5008827;28;20502;-76
2023/07/20 10:46:46;;;;;;;1.73;1.10;;;;;;;18.84;94.16;101451.91;5004204;28;20110;-76
2023/07/20 10:49:14;;;;;;;1.80;1.20;;;;;;;18.75;96.00;101443.09;5000495;28;20030;-76
2023/07/20 10:51:47;;;;;;;4.50;1.42;;;;;;;18.45;97.16;101438.91;5019611;28;20072;-76
2023/07/20 10:54:16;;;;;;;0.98;0.93;;;;;;;18.63;94.71;101443.59;5005861;28;20053;-77
2023/07/20 10:56:42;;;;;;;2.08;1.40;;;;;;;18.95;96.68;101443.28;5005594;28;20033;-76
2023/07/20 10:59:24;;;;;;;2.38;1.08;;;;;;;18.89;93.00;101442.97;5010125;28;20033;-76
2023/07/20 11:01:50;;;;;;;1.48;1.33;;;;;;;19.08;96.93;101443.56;5001869;28;20037;-76
2023/07/20 11:04:18;;;;;;;1.77;1.48;;;;;;;18.96;96.25;101441.28;4997635;28;20133;-76
2023/07/20 11:06:44;;;;;;;2.67;1.40;;;;;;;19.10;93.47;101443.97;5010732;28;20403;-76
2023/07/20 11:09:15;;;;;;;1.63;1.00;;;;;;;19.57;90.79;101444.16;5005062;28;20222;-76
2023/07/20 11:11:46;;;;;;;2.60;1.23;;;;;;;19.74;91.05;101435.84;5007907;28;20028;-76
2023/07/20 11:14:28;;;;;;;2.38;1.50;;;;;;;19.75;90.74;101448.78;5017181;28;20395;-76
2023/07/20 11:16:55;;;;;;;2.05;1.15;;;;;;;19.49;88.25;101442.63;5002561;28;20485;-76